createdAt,value
2019-04-28T00:01:59.059Z,70.27
2019-04-28T00:04:31.554Z,70.25
2019-04-28T00:07:03.513Z,70.22
2019-04-28T00:09:35.075Z,70.33
2019-04-28T00:12:06.938Z,70.39
2019-04-28T00:14:38.990Z,70.33
2019-04-28T00:17:12.099Z,70.33
2019-04-28T00:19:43.843Z,70.18
2019-04-28T00:22:17.465Z,69.96
2019-04-28T00:24:53.511Z,69.96
2019-04-28T00:27:25.187Z,70.43
2019-04-28T00:29:57.252Z,70.87
2019-04-28T00:32:30.471Z,71.07
2019-04-28T00:35:03.483Z,71.23
2019-04-28T00:37:36.615Z,70.48
2019-04-28T00:40:11.101Z,69.51
2019-04-28T00:42:43.024Z,69.28
2019-04-28T00:45:15.391Z,69.57
2019-04-28T00:47:47.252Z,69.79
2019-04-28T00:50:18.820Z,70.25
2019-04-28T00:52:51.813Z,70.68
2019-04-28T00:55:23.571Z,71.28
2019-04-28T00:57:55.436Z,71.38
2019-04-28T01:00:28.634Z,71.33
2019-04-28T01:03:02.198Z,71.36
2019-04-28T01:05:33.936Z,71.80
2019-04-28T01:08:05.692Z,72.12
2019-04-28T01:10:37.716Z,72.45
2019-04-28T01:13:11.604Z,72.54
2019-04-28T01:16:01.622Z,72.48
2019-04-28T01:18:35.428Z,72.01
2019-04-28T01:21:07.293Z,70.82
2019-04-28T01:23:40.251Z,69.56
2019-04-28T01:26:12.128Z,69.94
2019-04-28T01:28:43.989Z,69.67
2019-04-28T01:31:19.343Z,69.39
2019-04-28T01:34:10.308Z,70.51
2019-04-28T01:36:42.211Z,72.45
2019-04-28T01:39:14.194Z,72.85
2019-04-28T01:41:45.828Z,71.86
2019-04-28T01:44:19.674Z,71.76
2019-04-28T01:46:51.097Z,71.68
2019-04-28T01:49:23.081Z,71.61
2019-04-28T01:52:00.950Z,71.75
2019-04-28T01:54:33.861Z,71.57
2019-04-28T01:57:05.740Z,71.20
2019-04-28T01:59:37.689Z,70.77
2019-04-28T02:02:10.331Z,71.02
2019-04-28T02:04:42.259Z,70.89
2019-04-28T02:07:15.436Z,70.61
2019-04-28T02:09:49.062Z,70.05
2019-04-28T02:12:20.707Z,69.42
2019-04-28T02:14:52.986Z,69.21
2019-04-28T02:17:24.622Z,69.22
2019-04-28T02:19:56.689Z,69.50
2019-04-28T02:22:33.993Z,68.84
2019-04-28T02:25:07.419Z,68.23
2019-04-28T02:27:40.043Z,67.58
2019-04-28T02:30:12.847Z,67.09
2019-04-28T02:32:44.833Z,66.59
2019-04-28T02:35:17.615Z,65.81
2019-04-28T02:37:50.501Z,64.49
2019-04-28T02:40:22.204Z,61.06
2019-04-28T02:42:53.819Z,62.29
2019-04-28T02:45:26.166Z,61.81
2019-04-28T02:48:01.016Z,61.21
2019-04-28T02:50:34.327Z,59.63
2019-04-28T02:53:11.177Z,58.76
2019-04-28T02:56:03.587Z,56.16
2019-04-28T02:58:35.515Z,53.57
2019-04-28T03:01:18.045Z,53.63
2019-04-28T03:03:41.094Z,53.54
2019-04-28T03:06:13.244Z,53.58
2019-04-28T03:08:46.148Z,53.88
2019-04-28T03:11:20.322Z,54.22
2019-04-28T03:13:51.372Z,54.58
2019-04-28T03:16:23.777Z,54.88
2019-04-28T03:18:55.853Z,55.32
2019-04-28T03:21:28.002Z,56.15
2019-04-28T03:24:01.235Z,56.44
2019-04-28T03:26:34.912Z,56.59
2019-04-28T03:29:10.990Z,56.31
2019-04-28T03:32:10.135Z,56.18
2019-04-28T03:34:22.901Z,56.32
2019-04-28T03:36:52.191Z,56.82
2019-04-28T03:39:24.484Z,56.96
2019-04-28T03:41:56.141Z,57.16
2019-04-28T03:44:30.897Z,57.36
2019-04-28T03:47:03.105Z,57.41
2019-04-28T03:49:35.423Z,57.85
2019-04-28T03:52:10.541Z,57.62
2019-04-28T03:54:41.131Z,57.38
2019-04-28T03:57:12.641Z,57.09
2019-04-28T03:59:44.258Z,57.16
2019-04-28T04:02:16.161Z,57.19
2019-04-28T04:04:49.050Z,57.16
2019-04-28T04:07:21.780Z,56.90
2019-04-28T04:09:55.220Z,56.67
2019-04-28T04:12:37.522Z,56.79
2019-04-28T04:15:11.315Z,56.58
2019-04-28T04:18:01.527Z,56.11
2019-04-28T04:20:33.199Z,54.80
2019-04-28T04:23:05.466Z,53.68
2019-04-28T04:25:37.034Z,52.27
2019-04-28T04:28:10.592Z,51.93
2019-04-28T04:30:42.497Z,51.41
2019-04-28T04:33:14.871Z,51.72
2019-04-28T04:35:46.736Z,51.65
2019-04-28T04:38:18.398Z,50.59
2019-04-28T04:40:51.292Z,49.47
2019-04-28T04:43:24.376Z,49.60
2019-04-28T04:46:14.218Z,49.49
2019-04-28T04:48:46.330Z,48.94
2019-04-28T04:51:20.919Z,48.43
2019-04-28T04:53:51.756Z,48.15
2019-04-28T04:56:23.722Z,47.82
2019-04-28T04:58:55.960Z,46.73
2019-04-28T05:01:30.411Z,46.97
2019-04-28T05:04:06.728Z,46.90
2019-04-28T05:06:41.574Z,44.70
2019-04-28T05:09:13.817Z,44.59
2019-04-28T05:11:46.038Z,43.59
2019-04-28T05:14:19.646Z,42.51
2019-04-28T05:16:50.959Z,42.49
2019-04-28T05:19:23.207Z,42.30
2019-04-28T05:21:54.877Z,43.07
2019-04-28T05:24:33.956Z,42.61
2019-04-28T05:27:05.889Z,43.21
2019-04-28T05:29:39.443Z,43.96
2019-04-28T05:32:11.414Z,44.10
2019-04-28T05:34:46.830Z,43.86
2019-04-28T05:37:16.820Z,44.15
2019-04-28T05:39:49.716Z,44.36
2019-04-28T05:42:21.982Z,44.00
2019-04-28T05:44:54.870Z,44.00
2019-04-28T05:47:26.731Z,44.67
2019-04-28T05:50:00.334Z,44.80
2019-04-28T05:52:33.510Z,45.74
2019-04-28T05:55:14.081Z,45.74
2019-04-28T05:58:05.839Z,46.64
2019-04-28T06:00:51.213Z,46.52
2019-04-28T06:03:30.654Z,46.78
2019-04-28T06:06:03.663Z,47.00
2019-04-28T06:08:37.142Z,47.16
2019-04-28T06:11:26.620Z,47.68
2019-04-28T06:13:59.877Z,48.20
2019-04-28T06:16:31.781Z,47.72
2019-04-28T06:19:03.765Z,47.65
2019-04-28T06:21:35.507Z,47.87
2019-04-28T06:24:07.579Z,47.73
2019-04-28T06:26:39.555Z,47.77
2019-04-28T06:29:11.374Z,47.69
2019-04-28T06:31:43.373Z,48.51
2019-04-28T06:34:15.240Z,48.44
2019-04-28T06:36:47.289Z,48.46
2019-04-28T06:39:19.165Z,47.22
2019-04-28T06:41:51.319Z,46.39
2019-04-28T06:44:22.998Z,46.65
2019-04-28T06:46:55.063Z,46.12
2019-04-28T06:49:26.928Z,47.18
2019-04-28T06:51:58.697Z,45.29
2019-04-28T06:54:30.553Z,44.80
2019-04-28T06:57:03.732Z,43.98
2019-04-28T06:59:35.718Z,43.58
2019-04-28T07:02:07.792Z,44.72
2019-04-28T07:04:39.527Z,44.45
2019-04-28T07:07:11.679Z,44.29
2019-04-28T07:09:43.683Z,44.67
2019-04-28T07:12:15.750Z,45.17
2019-04-28T07:14:47.609Z,45.19
2019-04-28T07:17:19.474Z,45.68
2019-04-28T07:19:53.284Z,46.39
2019-04-28T07:22:26.563Z,47.00
2019-04-28T07:24:58.526Z,46.23
2019-04-28T07:27:30.495Z,46.89
2019-04-28T07:30:02.270Z,46.19
2019-04-28T07:32:35.467Z,46.46
2019-04-28T07:35:07.388Z,44.78
2019-04-28T07:37:39.095Z,44.24
2019-04-28T07:40:11.466Z,44.32
2019-04-28T07:42:44.663Z,43.57
2019-04-28T07:45:16.941Z,43.36
2019-04-28T07:47:48.796Z,43.61
2019-04-28T07:50:20.845Z,41.35
2019-04-28T07:52:54.392Z,41.29
2019-04-28T07:55:26.558Z,41.17
2019-04-28T07:57:58.603Z,39.00
2019-04-28T08:00:31.688Z,39.23
2019-04-28T08:03:03.460Z,39.43
2019-04-28T08:05:35.605Z,39.84
2019-04-28T08:08:07.265Z,39.08
2019-04-28T08:10:39.356Z,37.26
2019-04-28T08:13:11.113Z,36.80
2019-04-28T08:15:42.982Z,34.12
2019-04-28T08:18:14.616Z,33.47
2019-04-28T08:20:46.582Z,34.24
2019-04-28T08:23:18.268Z,35.12
2019-04-28T08:25:50.427Z,34.60
2019-04-28T08:28:22.190Z,33.51
2019-04-28T08:30:53.845Z,32.81
2019-04-28T08:33:36.548Z,32.91
2019-04-28T08:36:08.309Z,34.10
2019-04-28T08:38:40.295Z,33.08
2019-04-28T08:41:12.263Z,35.51
2019-04-28T08:43:43.902Z,34.99
2019-04-28T08:46:17.490Z,34.42
2019-04-28T08:48:48.590Z,33.67
2019-04-28T08:51:19.969Z,33.29
2019-04-28T08:53:51.995Z,33.24
2019-04-28T08:56:24.692Z,33.70
2019-04-28T08:58:56.338Z,33.21
2019-04-28T09:01:28.297Z,32.32
2019-04-28T09:03:59.936Z,32.17
2019-04-28T09:06:32.027Z,33.42
2019-04-28T09:09:05.747Z,33.50
2019-04-28T09:11:36.994Z,33.21
2019-04-28T09:14:08.747Z,33.31
2019-04-28T09:16:40.384Z,34.39
2019-04-28T09:19:12.496Z,33.96
2019-04-28T09:21:44.110Z,29.91
2019-04-28T09:24:16.193Z,30.64
2019-04-28T09:26:47.956Z,28.72
2019-04-28T09:29:19.798Z,27.61
2019-04-28T09:31:51.681Z,28.25
2019-04-28T09:34:28.378Z,27.05
2019-04-28T09:36:56.750Z,26.70
2019-04-28T09:39:42.716Z,27.21
2019-04-28T09:42:31.505Z,27.26
2019-04-28T09:45:14.013Z,27.81
2019-04-28T09:47:45.977Z,28.70
2019-04-28T09:50:17.519Z,27.60
2019-04-28T09:52:49.703Z,27.86
2019-04-28T09:55:21.879Z,28.25
2019-04-28T09:57:54.921Z,27.32
2019-04-28T10:00:26.734Z,27.67
2019-04-28T10:02:58.596Z,27.40
2019-04-28T10:05:30.887Z,27.60
2019-04-28T10:08:02.529Z,27.87
2019-04-28T10:10:34.506Z,28.67
2019-04-28T10:13:06.153Z,29.37
2019-04-28T10:15:39.345Z,28.71
2019-04-28T10:18:11.316Z,28.21
2019-04-28T10:20:43.179Z,29.27
2019-04-28T10:23:14.838Z,28.74
2019-04-28T10:25:46.907Z,28.46
2019-04-28T10:28:19.800Z,27.39
2019-04-28T10:30:51.606Z,28.16
2019-04-28T10:33:23.200Z,28.06
2019-04-28T10:35:55.202Z,28.01
2019-04-28T10:38:27.051Z,29.00
2019-04-28T10:41:00.173Z,30.88
2019-04-28T10:43:32.810Z,31.30
2019-04-28T10:46:04.789Z,30.49
2019-04-28T10:48:37.609Z,30.55
2019-04-28T10:51:09.219Z,30.25
2019-04-28T10:53:41.092Z,30.52
2019-04-28T10:56:13.145Z,30.76
2019-04-28T10:58:46.561Z,30.13
2019-04-28T11:01:18.508Z,30.45
2019-04-28T11:03:52.031Z,30.05
2019-04-28T11:06:23.999Z,30.08
2019-04-28T11:09:00.038Z,30.11
2019-04-28T11:11:31.805Z,29.39
2019-04-28T11:14:03.479Z,29.06
2019-04-28T11:16:37.799Z,27.98
2019-04-28T11:19:09.975Z,26.91
2019-04-28T11:21:41.824Z,27.46
2019-04-28T11:24:13.912Z,26.57
2019-04-28T11:26:45.651Z,26.14
2019-04-28T11:29:17.942Z,25.85
2019-04-28T11:31:50.522Z,26.43
2019-04-28T11:34:26.993Z,26.70
2019-04-28T11:36:58.958Z,26.25
2019-04-28T11:39:32.351Z,26.00
2019-04-28T11:42:04.234Z,26.06
2019-04-28T11:44:36.081Z,26.67
2019-04-28T11:47:09.586Z,26.38
2019-04-28T11:49:41.436Z,26.59
2019-04-28T11:52:13.626Z,26.75
2019-04-28T11:54:45.390Z,26.41
2019-04-28T11:57:17.377Z,26.73
2019-04-28T11:59:49.318Z,26.51
2019-04-28T12:02:21.280Z,26.36
2019-04-28T12:04:54.917Z,26.52
2019-04-28T12:07:26.746Z,26.87
2019-04-28T12:10:05.392Z,26.19
2019-04-28T12:12:43.374Z,27.48
2019-04-28T12:15:25.992Z,26.93
2019-04-28T12:18:14.749Z,26.66
2019-04-28T12:20:46.718Z,26.36
2019-04-28T12:23:18.667Z,26.63
2019-04-28T12:25:50.769Z,26.00
2019-04-28T12:28:22.496Z,26.62
2019-04-28T12:30:54.580Z,26.62
2019-04-28T12:33:26.481Z,25.09
2019-04-28T12:35:58.627Z,25.48
2019-04-28T12:38:30.373Z,26.93
2019-04-28T12:41:02.441Z,26.72
2019-04-28T12:43:34.194Z,26.06
2019-04-28T12:46:06.168Z,26.09
2019-04-28T12:48:37.929Z,25.76
2019-04-28T12:51:09.897Z,25.87
2019-04-28T12:53:41.929Z,26.17
2019-04-28T12:56:15.363Z,26.85
2019-04-28T12:58:50.095Z,25.50
2019-04-28T13:01:32.692Z,25.79
2019-04-28T13:04:12.153Z,25.85
2019-04-28T13:06:46.268Z,26.39
2019-04-28T13:09:18.337Z,26.10
2019-04-28T13:11:50.202Z,25.79
2019-04-28T13:14:22.270Z,26.36
2019-04-28T13:16:54.033Z,26.38
2019-04-28T13:19:26.313Z,27.23
2019-04-28T13:21:58.071Z,27.86
2019-04-28T13:24:30.141Z,27.29
2019-04-28T13:27:02.001Z,27.27
2019-04-28T13:29:33.953Z,28.73
2019-04-28T13:32:05.853Z,28.54
2019-04-28T13:34:39.139Z,28.97
2019-04-28T13:37:11.120Z,29.28
2019-04-28T13:39:45.207Z,29.34
2019-04-28T13:42:17.290Z,29.90
2019-04-28T13:44:50.739Z,30.86
2019-04-28T13:47:22.258Z,32.26
2019-04-28T13:49:57.080Z,33.01
2019-04-28T13:52:28.943Z,33.55
2019-04-28T13:55:08.174Z,34.73
2019-04-28T13:57:42.338Z,34.95
2019-04-28T14:00:18.055Z,34.30
2019-04-28T14:02:54.623Z,34.45
2019-04-28T14:05:34.066Z,34.64
2019-04-28T14:08:05.755Z,34.18
2019-04-28T14:10:37.664Z,34.28
2019-04-28T14:13:10.800Z,33.28
2019-04-28T14:15:42.843Z,33.42
2019-04-28T14:18:14.603Z,33.44
2019-04-28T14:20:46.739Z,34.14
2019-04-28T14:23:19.692Z,34.26
2019-04-28T14:25:51.744Z,34.49
2019-04-28T14:28:23.422Z,35.11
2019-04-28T14:30:55.322Z,35.55
2019-04-28T14:33:26.930Z,35.35
2019-04-28T14:35:58.670Z,35.13
2019-04-28T14:38:30.660Z,35.22
2019-04-28T14:41:02.311Z,35.82
2019-04-28T14:43:34.380Z,36.05
2019-04-28T14:46:06.130Z,36.31
2019-04-28T14:48:38.159Z,36.32
2019-04-28T14:51:10.815Z,36.27
2019-04-28T14:53:42.339Z,36.13
2019-04-28T14:56:14.337Z,36.29
2019-04-28T14:58:46.380Z,36.61
2019-04-28T15:01:21.104Z,37.33
2019-04-28T15:03:54.385Z,36.94
2019-04-28T15:06:28.115Z,36.65
2019-04-28T15:09:16.776Z,36.94
2019-04-28T15:11:56.423Z,37.03
2019-04-28T15:14:28.225Z,37.35
2019-04-28T15:17:01.175Z,37.01
2019-04-28T15:19:33.098Z,37.09
2019-04-28T15:22:05.105Z,37.18
2019-04-28T15:24:36.966Z,38.09
2019-04-28T15:27:09.016Z,39.02
2019-04-28T15:29:40.786Z,38.54
2019-04-28T15:32:12.345Z,37.52
2019-04-28T15:34:44.421Z,37.17
2019-04-28T15:37:16.286Z,37.08
2019-04-28T15:39:48.271Z,37.51
2019-04-28T15:42:20.110Z,38.48
2019-04-28T15:44:51.853Z,39.92
2019-04-28T15:47:23.835Z,40.86
2019-04-28T15:49:55.787Z,41.15
2019-04-28T15:52:27.977Z,38.87
2019-04-28T15:54:59.826Z,37.80
2019-04-28T15:57:31.600Z,38.15
2019-04-28T16:00:05.334Z,38.72
2019-04-28T16:02:38.402Z,39.50
2019-04-28T16:05:10.630Z,40.31
2019-04-28T16:07:42.312Z,41.66
2019-04-28T16:10:14.794Z,42.39
2019-04-28T16:12:47.196Z,42.68
2019-04-28T16:15:18.947Z,42.99
2019-04-28T16:17:50.502Z,43.34
2019-04-28T16:20:22.468Z,44.05
2019-04-28T16:22:54.521Z,44.68
2019-04-28T16:25:26.414Z,45.46
2019-04-28T16:27:57.936Z,46.08
2019-04-28T16:30:29.821Z,46.79
2019-04-28T16:33:01.887Z,47.18
2019-04-28T16:35:34.677Z,47.78
2019-04-28T16:38:06.531Z,48.49
2019-04-28T16:40:39.200Z,49.51
2019-04-28T16:43:11.587Z,50.10
2019-04-28T16:45:43.280Z,50.84
2019-04-28T16:48:15.200Z,51.50
2019-04-28T16:50:47.191Z,51.84
2019-04-28T16:53:18.822Z,52.23
2019-04-28T16:55:52.430Z,52.50
2019-04-28T16:58:41.290Z,52.87
2019-04-28T17:01:31.622Z,52.62
2019-04-28T17:04:03.675Z,53.18
2019-04-28T17:06:35.741Z,54.16
2019-04-28T17:09:08.528Z,54.46
2019-04-28T17:11:40.799Z,54.61
2019-04-28T17:14:12.661Z,54.91
2019-04-28T17:16:45.959Z,55.37
2019-04-28T17:19:17.910Z,55.67
2019-04-28T17:21:50.711Z,56.13
2019-04-28T17:24:22.760Z,56.17
2019-04-28T17:26:54.623Z,56.36
2019-04-28T17:29:27.016Z,56.65
2019-04-28T17:31:58.656Z,56.68
2019-04-28T17:34:33.629Z,56.63
2019-04-28T17:37:05.575Z,55.96
2019-04-28T17:39:37.231Z,56.02
2019-04-28T17:42:09.298Z,56.49
2019-04-28T17:44:41.472Z,56.60
2019-04-28T17:47:14.191Z,56.71
2019-04-28T17:49:45.808Z,56.90
2019-04-28T17:52:18.900Z,57.27
2019-04-28T17:54:50.765Z,57.80
2019-04-28T17:57:22.833Z,58.50
2019-04-28T17:59:56.292Z,59.45
2019-04-28T18:02:45.398Z,59.83
2019-04-28T18:05:30.881Z,60.05
2019-04-28T18:08:02.949Z,60.38
2019-04-28T18:10:35.325Z,60.55
2019-04-28T18:13:07.093Z,60.30
2019-04-28T18:15:49.090Z,60.39
2019-04-28T18:18:31.834Z,60.05
2019-04-28T18:21:03.660Z,59.87
2019-04-28T18:23:35.847Z,59.99
2019-04-28T18:26:07.715Z,59.93
2019-04-28T18:28:39.675Z,60.34
2019-04-28T18:31:15.937Z,61.91
2019-04-28T18:34:05.929Z,62.67
2019-04-28T18:36:55.509Z,63.27
2019-04-28T18:39:44.369Z,63.36
2019-04-28T18:42:18.068Z,63.93
2019-04-28T18:44:50.024Z,64.60
2019-04-28T18:47:22.005Z,64.39
2019-04-28T18:49:54.693Z,64.41
2019-04-28T18:52:27.496Z,64.45
2019-04-28T18:54:59.077Z,64.53
2019-04-28T18:57:31.410Z,64.61
2019-04-28T19:00:04.660Z,65.14
2019-04-28T19:02:42.190Z,65.54
2019-04-28T19:05:14.370Z,65.64
2019-04-28T19:07:50.650Z,65.51
2019-04-28T19:10:40.534Z,65.59
2019-04-28T19:13:13.913Z,65.64
2019-04-28T19:16:04.009Z,65.80
2019-04-28T19:18:37.616Z,65.85
2019-04-28T19:21:09.375Z,66.12
2019-04-28T19:23:41.461Z,66.46
2019-04-28T19:26:13.116Z,66.80
2019-04-28T19:28:45.223Z,67.42
2019-04-28T19:31:16.931Z,67.51
2019-04-28T19:33:49.017Z,67.56
2019-04-28T19:36:20.865Z,67.66
2019-04-28T19:39:02.997Z,67.48
2019-04-28T19:41:26.022Z,67.05
2019-04-28T19:43:59.341Z,67.09
2019-04-28T19:46:31.216Z,67.20
2019-04-28T19:49:03.273Z,67.30
2019-04-28T19:51:35.340Z,67.49
2019-04-28T19:54:07.901Z,67.70
2019-04-28T19:56:47.768Z,67.59
2019-04-28T19:59:27.497Z,67.40
2019-04-28T20:02:02.241Z,67.15
2019-04-28T20:04:34.104Z,67.03
2019-04-28T20:07:06.177Z,67.40
2019-04-28T20:09:37.947Z,67.87
2019-04-28T20:12:09.697Z,68.09
2019-04-28T20:14:41.850Z,67.98
2019-04-28T20:17:13.761Z,67.54
2019-04-28T20:19:46.007Z,67.28
2019-04-28T20:22:17.848Z,67.45
2019-04-28T20:24:49.731Z,67.24
2019-04-28T20:27:21.886Z,67.43
2019-04-28T20:29:53.545Z,68.15
2019-04-28T20:32:25.614Z,68.52
2019-04-28T20:34:57.595Z,68.72
2019-04-28T20:37:39.802Z,69.07
2019-04-28T20:40:16.563Z,68.52
2019-04-28T20:43:05.016Z,67.22
2019-04-28T20:45:37.099Z,66.75
2019-04-28T20:48:09.063Z,67.01
2019-04-28T20:50:41.027Z,67.65
2019-04-28T20:53:14.243Z,68.35
2019-04-28T20:55:46.291Z,68.82
2019-04-28T20:58:18.060Z,69.13
2019-04-28T21:00:50.134Z,69.46
2019-04-28T21:03:22.294Z,69.73
2019-04-28T21:05:53.952Z,69.77
2019-04-28T21:08:25.824Z,69.72
2019-04-28T21:10:57.495Z,69.78
2019-04-28T21:13:29.438Z,69.96
2019-04-28T21:16:01.487Z,70.42
2019-04-28T21:18:33.270Z,70.73
2019-04-28T21:21:05.333Z,70.67
2019-04-28T21:23:37.179Z,69.99
2019-04-28T21:26:09.250Z,69.67
2019-04-28T21:28:41.031Z,69.61
2019-04-28T21:31:12.979Z,69.47
2019-04-28T21:33:44.784Z,69.08
2019-04-28T21:36:16.621Z,68.43
2019-04-28T21:38:49.991Z,67.74
2019-04-28T21:41:22.001Z,67.72
2019-04-28T21:43:56.301Z,66.99
2019-04-28T21:46:29.888Z,64.48
2019-04-28T21:49:03.297Z,62.98
2019-04-28T21:51:36.551Z,61.56
2019-04-28T21:54:08.582Z,60.17
2019-04-28T21:56:40.846Z,59.37
2019-04-28T21:59:12.804Z,58.28
2019-04-28T22:01:45.448Z,58.05
2019-04-28T22:04:17.442Z,57.82
2019-04-28T22:06:49.432Z,57.75
2019-04-28T22:09:21.507Z,57.55
2019-04-28T22:11:53.250Z,57.08
2019-04-28T22:14:25.194Z,56.88
2019-04-28T22:16:57.075Z,56.69
2019-04-28T22:19:29.241Z,56.51
2019-04-28T22:22:00.829Z,56.28
2019-04-28T22:24:38.089Z,56.48
2019-04-28T22:27:11.471Z,57.36
2019-04-28T22:29:43.246Z,58.90
2019-04-28T22:32:15.111Z,59.69
2019-04-28T22:34:47.426Z,60.07
2019-04-28T22:37:19.248Z,60.07
2019-04-28T22:39:50.881Z,59.64
2019-04-28T22:42:22.974Z,59.96
2019-04-28T22:44:55.856Z,59.86
2019-04-28T22:47:28.216Z,60.14
2019-04-28T22:49:59.998Z,60.78
2019-04-28T22:52:31.656Z,61.01
2019-04-28T22:55:06.856Z,61.48
2019-04-28T22:57:42.971Z,61.94
2019-04-28T23:00:35.517Z,61.76
2019-04-28T23:03:08.782Z,61.00
2019-04-28T23:05:40.519Z,59.87
2019-04-28T23:08:12.063Z,58.68
2019-04-28T23:10:43.798Z,56.85
2019-04-28T23:13:15.316Z,55.81
2019-04-28T23:15:47.037Z,55.31
2019-04-28T23:18:19.039Z,54.66
2019-04-28T23:20:56.960Z,53.92
2019-04-28T23:23:28.925Z,53.58
2019-04-28T23:26:03.020Z,53.51
2019-04-28T23:28:34.189Z,53.54
2019-04-28T23:31:05.829Z,53.93
2019-04-28T23:33:37.813Z,54.57
2019-04-28T23:36:09.881Z,54.90
2019-04-28T23:38:42.586Z,55.02
2019-04-28T23:41:15.946Z,55.37
2019-04-28T23:43:47.832Z,55.33
2019-04-28T23:46:19.800Z,56.38
2019-04-28T23:48:51.848Z,56.46
2019-04-28T23:51:37.349Z,55.87
2019-04-28T23:54:09.108Z,55.44
2019-04-28T23:56:41.156Z,55.10
2019-04-28T23:59:13.019Z,55.09
